BAW2X KSFO-EGLL
Flight info
| Callsign | BAW2X |
|---|---|
| Flight time | N/A |
| Altitude | 35000 |
| Route | TRUKN2 DEDHD DCT KO60G DCT KU75K DCT KU81M DCT KU87O DCT KU06S DCT KU15W DCT MOT DCT YRL/N0497F370 DCT PIGLA DCT TEALS DCT DORYY/M085F390 NATS KESIX/N0483F390 DCT LUTOV DCT NIPIT DCT MCM DCT BOFUM Q37 MALUD Q38 NUGRA |
| Aircraft | A388/J-SADE2E3FGHIJ3J4J5M1RWXY/LB1D1 |
Departure
| Time | N/A |
|---|---|
| Airport | San Francisco International Airport (KSFO) |
Arrival
| Time | 2026-04-30 14:42 |
|---|---|
| Airport | London Heathrow Airport (EGLL) |
| Time | Latitude | Longitude | Altitude | Speed | Heading |
|---|---|---|---|---|---|
| 2026-04-30 14:09 | 53.36238 | -3.43109 | 35246 ft | 454 kts | 118° |
| 2026-04-30 14:10 | 53.32087 | -3.28743 | 35171 ft | 455 kts | 118° |
| 2026-04-30 14:10 | 53.29346 | -3.19302 | 35174 ft | 455 kts | 118° |
| 2026-04-30 14:11 | 53.26555 | -3.09738 | 35173 ft | 456 kts | 118° |
| 2026-04-30 14:11 | 53.23759 | -3.00204 | 35178 ft | 456 kts | 118° |
| 2026-04-30 14:12 | 53.20965 | -2.90700 | 35183 ft | 456 kts | 118° |
| 2026-04-30 14:12 | 53.18175 | -2.81257 | 35185 ft | 456 kts | 118° |
| 2026-04-30 14:13 | 53.15363 | -2.71772 | 35178 ft | 457 kts | 118° |
| 2026-04-30 14:13 | 53.12538 | -2.62290 | 35193 ft | 457 kts | 118° |
| 2026-04-30 14:14 | 53.10185 | -2.54421 | 35193 ft | 457 kts | 118° |
| 2026-04-30 14:14 | 53.07393 | -2.45106 | 35197 ft | 457 kts | 119° |
| 2026-04-30 14:15 | 53.03993 | -2.34743 | 35197 ft | 454 kts | 127° |
| 2026-04-30 14:15 | 53.00464 | -2.28258 | 35196 ft | 452 kts | 140° |
| 2026-04-30 14:16 | 52.95301 | -2.22350 | 35157 ft | 450 kts | 148° |
| 2026-04-30 14:16 | 52.92671 | -2.19607 | 34921 ft | 444 kts | 148° |
| 2026-04-30 14:16 | 52.90061 | -2.16869 | 34677 ft | 443 kts | 147° |
| 2026-04-30 14:16 | 52.87498 | -2.14186 | 34426 ft | 442 kts | 147° |
| 2026-04-30 14:17 | 52.84905 | -2.11475 | 34176 ft | 439 kts | 147° |
| 2026-04-30 14:17 | 52.82339 | -2.08796 | 33903 ft | 435 kts | 147° |
| 2026-04-30 14:17 | 52.79780 | -2.06128 | 33237 ft | 434 kts | 147° |
| 2026-04-30 14:17 | 52.77212 | -2.03459 | 32434 ft | 434 kts | 147° |
| 2026-04-30 14:18 | 52.74672 | -2.00823 | 31915 ft | 428 kts | 147° |
| 2026-04-30 14:18 | 52.72184 | -1.98243 | 31562 ft | 418 kts | 147° |
| 2026-04-30 14:18 | 52.67310 | -1.93203 | 30430 ft | 409 kts | 147° |
| 2026-04-30 14:19 | 52.62576 | -1.88315 | 29349 ft | 399 kts | 147° |
| 2026-04-30 14:19 | 52.60234 | -1.85909 | 28816 ft | 394 kts | 147° |
| 2026-04-30 14:19 | 52.57924 | -1.83539 | 28311 ft | 389 kts | 147° |
| 2026-04-30 14:20 | 52.55644 | -1.81198 | 27814 ft | 384 kts | 147° |
| 2026-04-30 14:20 | 52.53390 | -1.78885 | 27302 ft | 379 kts | 147° |
| 2026-04-30 14:20 | 52.48968 | -1.74356 | 26320 ft | 370 kts | 147° |
| 2026-04-30 14:21 | 52.46792 | -1.72134 | 25862 ft | 365 kts | 148° |
| 2026-04-30 14:21 | 52.44648 | -1.69947 | 25359 ft | 361 kts | 147° |
| 2026-04-30 14:21 | 52.40426 | -1.65643 | 24454 ft | 353 kts | 148° |
| 2026-04-30 14:22 | 52.38348 | -1.63529 | 23978 ft | 350 kts | 148° |
| 2026-04-30 14:22 | 52.34081 | -1.59193 | 23242 ft | 383 kts | 148° |
| 2026-04-30 14:22 | 52.31784 | -1.56863 | 22689 ft | 391 kts | 148° |
| 2026-04-30 14:23 | 52.27200 | -1.52234 | 21560 ft | 383 kts | 148° |
| 2026-04-30 14:23 | 52.22740 | -1.47730 | 20466 ft | 370 kts | 147° |
| 2026-04-30 14:24 | 52.18801 | -1.42656 | 19698 ft | 354 kts | 139° |
| 2026-04-30 14:24 | 52.16935 | -1.40027 | 19278 ft | 354 kts | 140° |
| 2026-04-30 14:25 | 52.13206 | -1.34820 | 18657 ft | 351 kts | 140° |
| 2026-04-30 14:25 | 52.09512 | -1.29684 | 17943 ft | 348 kts | 140° |
| 2026-04-30 14:26 | 52.05870 | -1.24628 | 17218 ft | 345 kts | 140° |
| 2026-04-30 14:26 | 52.04051 | -1.22104 | 16897 ft | 343 kts | 140° |
| 2026-04-30 14:26 | 52.00405 | -1.17053 | 16046 ft | 341 kts | 140° |
| 2026-04-30 14:27 | 51.98639 | -1.14614 | 15848 ft | 335 kts | 140° |
| 2026-04-30 14:27 | 51.96894 | -1.12207 | 15774 ft | 323 kts | 140° |
| 2026-04-30 14:27 | 51.95215 | -1.09891 | 15654 ft | 310 kts | 140° |
| 2026-04-30 14:28 | 51.92066 | -1.05548 | 15440 ft | 285 kts | 140° |
| 2026-04-30 14:28 | 51.90582 | -1.03506 | 15353 ft | 274 kts | 140° |
| 2026-04-30 14:28 | 51.89170 | -1.01565 | 15269 ft | 263 kts | 140° |
| 2026-04-30 14:28 | 51.87802 | -0.99687 | 15157 ft | 253 kts | 140° |
| 2026-04-30 14:29 | 51.85258 | -0.95745 | 14024 ft | 253 kts | 126° |
| 2026-04-30 14:29 | 51.83617 | -0.90728 | 12957 ft | 252 kts | 117° |
| 2026-04-30 14:30 | 51.81106 | -0.83503 | 11446 ft | 239 kts | 142° |
| 2026-04-30 14:31 | 51.78223 | -0.81705 | 10902 ft | 198 kts | 160° |
| 2026-04-30 14:31 | 51.75519 | -0.81268 | 8815 ft | 211 kts | 190° |
| 2026-04-30 14:31 | 51.74104 | -0.81932 | 7797 ft | 210 kts | 191° |
| 2026-04-30 14:32 | 51.71360 | -0.83242 | 5925 ft | 204 kts | 190° |
| 2026-04-30 14:32 | 51.70019 | -0.83904 | 5015 ft | 200 kts | 191° |
| 2026-04-30 14:32 | 51.68686 | -0.84562 | 4071 ft | 200 kts | 191° |
| 2026-04-30 14:33 | 51.67351 | -0.85013 | 3194 ft | 191 kts | 171° |
| 2026-04-30 14:33 | 51.65067 | -0.84173 | 2681 ft | 154 kts | 161° |
| 2026-04-30 14:33 | 51.64035 | -0.83787 | 2681 ft | 152 kts | 160° |
| 2026-04-30 14:34 | 51.63024 | -0.83414 | 2689 ft | 154 kts | 161° |
| 2026-04-30 14:34 | 51.61955 | -0.83019 | 2688 ft | 153 kts | 160° |
| 2026-04-30 14:34 | 51.60933 | -0.82583 | 2684 ft | 151 kts | 153° |
| 2026-04-30 14:34 | 51.59975 | -0.81909 | 2682 ft | 150 kts | 150° |
| 2026-04-30 14:35 | 51.57954 | -0.80450 | 2690 ft | 183 kts | 150° |
| 2026-04-30 14:35 | 51.56719 | -0.79519 | 2688 ft | 208 kts | 151° |
| 2026-04-30 14:35 | 51.55407 | -0.78507 | 2676 ft | 214 kts | 151° |
| 2026-04-30 14:36 | 51.54074 | -0.77462 | 2687 ft | 212 kts | 150° |
| 2026-04-30 14:36 | 51.52754 | -0.76431 | 2692 ft | 206 kts | 150° |
| 2026-04-30 14:36 | 51.51507 | -0.75467 | 2699 ft | 192 kts | 150° |
| 2026-04-30 14:36 | 51.50339 | -0.74573 | 2714 ft | 179 kts | 150° |
| 2026-04-30 14:37 | 51.49277 | -0.73773 | 2690 ft | 164 kts | 150° |
| 2026-04-30 14:37 | 51.48413 | -0.72812 | 2721 ft | 144 kts | 129° |
| 2026-04-30 14:37 | 51.47924 | -0.71435 | 2699 ft | 144 kts | 109° |
| 2026-04-30 14:37 | 51.47732 | -0.69858 | 2662 ft | 147 kts | 98° |
| 2026-04-30 14:38 | 51.47682 | -0.68218 | 2481 ft | 147 kts | 92° |
| 2026-04-30 14:38 | 51.47685 | -0.66587 | 2304 ft | 146 kts | 90° |
| 2026-04-30 14:38 | 51.47689 | -0.64957 | 2103 ft | 147 kts | 90° |
| 2026-04-30 14:38 | 51.47695 | -0.63312 | 1895 ft | 149 kts | 90° |
| 2026-04-30 14:39 | 51.47703 | -0.61651 | 1706 ft | 150 kts | 89° |
| 2026-04-30 14:39 | 51.47708 | -0.59987 | 1504 ft | 149 kts | 89° |
| 2026-04-30 14:39 | 51.47714 | -0.58325 | 1303 ft | 146 kts | 88° |
| 2026-04-30 14:40 | 51.47723 | -0.55368 | 945 ft | 126 kts | 90° |
| 2026-04-30 14:40 | 51.47730 | -0.53965 | 784 ft | 126 kts | 89° |
| 2026-04-30 14:40 | 51.47734 | -0.52564 | 616 ft | 126 kts | 89° |
| 2026-04-30 14:40 | 51.47739 | -0.51146 | 452 ft | 129 kts | 91° |
| 2026-04-30 14:41 | 51.47742 | -0.49720 | 254 ft | 127 kts | 89° |
| 2026-04-30 14:41 | 51.47752 | -0.48291 | 111 ft | 129 kts | 89° |
| 2026-04-30 14:41 | 51.47757 | -0.47048 | 96 ft | 91 kts | 90° |
| 2026-04-30 14:41 | 51.47758 | -0.46212 | 95 ft | 62 kts | 89° |
| 2026-04-30 14:42 | 51.47760 | -0.45716 | 92 ft | 13 kts | 90° |
| 2026-04-30 14:42 | 51.47748 | -0.45537 | 93 ft | 19 kts | 118° |
| 2026-04-30 14:42 | 51.47683 | -0.45465 | 93 ft | 10 kts | 194° |
| 2026-04-30 14:42 | 51.47600 | -0.45471 | 91 ft | 14 kts | 177° |
| 2026-04-30 14:43 | 51.47523 | -0.45521 | 95 ft | 13 kts | 243° |
| 2026-04-30 14:43 | 51.47511 | -0.45689 | 94 ft | 18 kts | 275° |
| 2026-04-30 14:43 | 51.47523 | -0.45913 | 94 ft | 22 kts | 272° |
| 2026-04-30 14:43 | 51.47518 | -0.46177 | 95 ft | 25 kts | 268° |
| 2026-04-30 14:44 | 51.47516 | -0.46441 | 93 ft | 22 kts | 269° |
| 2026-04-30 14:44 | 51.47515 | -0.46676 | 93 ft | 20 kts | 269° |
| 2026-04-30 14:44 | 51.47493 | -0.46873 | 91 ft | 17 kts | 265° |
| 2026-04-30 14:44 | 51.47494 | -0.47051 | 95 ft | 16 kts | 271° |
| 2026-04-30 14:45 | 51.47491 | -0.47267 | 91 ft | 23 kts | 273° |
| 2026-04-30 14:45 | 51.47491 | -0.47552 | 91 ft | 29 kts | 269° |
| 2026-04-30 14:45 | 51.47489 | -0.47913 | 94 ft | 34 kts | 269° |
| 2026-04-30 14:45 | 51.47489 | -0.48225 | 93 ft | 13 kts | 270° |
| 2026-04-30 14:46 | 51.47452 | -0.48360 | 95 ft | 11 kts | 194° |
| 2026-04-30 14:46 | 51.47386 | -0.48356 | 95 ft | 9 kts | 181° |
| 2026-04-30 14:46 | 51.47329 | -0.48358 | 95 ft | 8 kts | 181° |
| 2026-04-30 14:46 | 51.47279 | -0.48361 | 93 ft | 7 kts | 181° |
| 2026-04-30 14:47 | 51.47221 | -0.48359 | 95 ft | 11 kts | 176° |
| 2026-04-30 14:47 | 51.47186 | -0.48351 | 93 ft | 4 kts | 136° |
| 2026-04-30 14:47 | 51.47179 | -0.48319 | 95 ft | 3 kts | 84° |
| 2026-04-30 14:47 | 51.47181 | -0.48276 | 91 ft | 2 kts | 88° |
| 2026-04-30 14:48 | 51.47181 | -0.48247 | 94 ft | 0 kts | 89° |